createdAt,value
2018-12-27T00:01:37.903Z,101716.59
2018-12-27T00:04:06.325Z,101715.33
2018-12-27T00:06:34.736Z,101710.56
2018-12-27T00:09:04.641Z,101708.09
2018-12-27T00:11:33.099Z,101704.76
2018-12-27T00:14:01.666Z,101700.10
2018-12-27T00:16:30.234Z,101689.11
2018-12-27T00:19:00.362Z,101689.05
2018-12-27T00:21:28.829Z,101685.15
2018-12-27T00:23:57.307Z,101679.11
2018-12-27T00:26:25.755Z,101678.73
2018-12-27T00:28:54.160Z,101675.35
2018-12-27T00:31:22.792Z,101677.59
2018-12-27T00:33:51.376Z,101674.03
2018-12-27T00:36:19.919Z,101669.76
2018-12-27T00:38:48.484Z,101666.07
2018-12-27T00:41:17.116Z,101660.08
2018-12-27T00:43:45.655Z,101661.77
2018-12-27T00:46:14.241Z,101654.16
2018-12-27T00:48:45.970Z,101657.08
2018-12-27T00:51:14.518Z,101663.42
2018-12-27T00:53:43.090Z,101668.11
2018-12-27T00:56:11.678Z,101679.79
2018-12-27T00:58:40.263Z,101671.38
2018-12-27T01:01:09.112Z,101662.45
2018-12-27T01:03:37.685Z,101652.38
2018-12-27T01:06:06.275Z,101658.81
2018-12-27T01:08:34.806Z,101649.84
2018-12-27T01:11:03.360Z,101658.34
2018-12-27T01:13:31.945Z,101653.63
2018-12-27T01:16:02.313Z,101650.19
2018-12-27T01:18:30.805Z,101644.70
2018-12-27T01:20:59.392Z,101640.11
2018-12-27T01:23:27.955Z,101642.23
2018-12-27T01:25:56.529Z,101641.38
2018-12-27T01:28:25.062Z,101637.52
2018-12-27T01:30:53.660Z,101632.02
2018-12-27T01:33:22.231Z,101629.41
2018-12-27T01:35:50.838Z,101629.48
2018-12-27T01:38:19.520Z,101623.08
2018-12-27T01:40:48.080Z,101618.91
2018-12-27T01:43:16.666Z,101615.11
2018-12-27T01:45:45.256Z,101616.84
2018-12-27T01:48:13.888Z,101621.39
2018-12-27T01:50:42.472Z,101616.37
2018-12-27T01:53:11.068Z,101617.17
2018-12-27T01:55:39.707Z,101609.13
2018-12-27T01:58:08.372Z,101614.20
2018-12-27T02:00:36.971Z,101609.97
2018-12-27T02:03:05.747Z,101610.77
2018-12-27T02:05:34.292Z,101610.77
2018-12-27T02:08:02.871Z,101609.03
2018-12-27T02:10:31.510Z,101606.42
2018-12-27T02:13:00.090Z,101605.64
2018-12-27T02:15:28.643Z,101611.61
2018-12-27T02:17:57.234Z,101601.05
2018-12-27T02:20:25.808Z,101595.08
2018-12-27T02:22:54.418Z,101591.69
2018-12-27T02:25:23.029Z,101596.72
2018-12-27T02:27:51.558Z,101598.36
2018-12-27T02:30:20.162Z,101585.61
2018-12-27T02:32:48.735Z,101595.22
2018-12-27T02:35:17.279Z,101601.98
2018-12-27T02:37:45.897Z,101598.98
2018-12-27T02:40:14.444Z,101601.98
2018-12-27T02:42:43.755Z,101592.94
2018-12-27T02:45:12.319Z,101594.16
2018-12-27T02:47:40.902Z,101589.52
2018-12-27T02:50:09.470Z,101587.66
2018-12-27T02:52:38.090Z,101591.03
2018-12-27T02:55:06.665Z,101581.78
2018-12-27T02:57:35.308Z,101581.89
2018-12-27T03:00:03.868Z,101580.67
2018-12-27T03:02:32.937Z,101577.72
2018-12-27T03:05:01.544Z,101578.50
2018-12-27T03:07:30.643Z,101574.39
2018-12-27T03:09:59.721Z,101567.40
2018-12-27T03:12:28.271Z,101567.23
2018-12-27T03:14:56.816Z,101561.21
2018-12-27T03:17:25.402Z,101561.51
2018-12-27T03:19:53.992Z,101552.59
2018-12-27T03:22:22.553Z,101558.44
2018-12-27T03:24:51.223Z,101555.91
2018-12-27T03:27:19.784Z,101553.80
2018-12-27T03:29:48.410Z,101555.80
2018-12-27T03:32:16.973Z,101550.84
2018-12-27T03:34:45.556Z,101552.17
2018-12-27T03:37:14.173Z,101548.73
2018-12-27T03:39:42.780Z,101548.84
2018-12-27T03:42:11.360Z,101548.67
2018-12-27T03:44:39.969Z,101546.25
2018-12-27T03:47:08.560Z,101540.29
2018-12-27T03:49:37.103Z,101545.55
2018-12-27T03:52:05.664Z,101547.41
2018-12-27T03:54:34.240Z,101538.30
2018-12-27T03:57:02.827Z,101541.27
2018-12-27T03:59:31.430Z,101538.92
2018-12-27T04:02:00.010Z,101531.38
2018-12-27T04:04:28.661Z,101537.66
2018-12-27T04:06:57.234Z,101531.79
2018-12-27T04:09:25.822Z,101530.25
2018-12-27T04:11:54.412Z,101531.80
2018-12-27T04:14:22.980Z,101522.33
2018-12-27T04:16:51.469Z,101526.20
2018-12-27T04:19:19.903Z,101522.59
2018-12-27T04:21:51.016Z,101519.16
2018-12-27T04:24:20.624Z,101522.05
2018-12-27T04:26:49.035Z,101519.16
2018-12-27T04:29:17.485Z,101518.25
2018-12-27T04:31:48.259Z,101518.18
2018-12-27T04:34:17.852Z,101518.07
2018-12-27T04:36:46.859Z,101519.80
2018-12-27T04:39:15.300Z,101525.36
2018-12-27T04:41:44.235Z,101518.00
2018-12-27T04:44:13.234Z,101510.95
2018-12-27T04:46:41.660Z,101512.52
2018-12-27T04:49:10.165Z,101509.55
2018-12-27T04:51:38.622Z,101512.08
2018-12-27T04:54:07.073Z,101515.54
2018-12-27T04:56:35.535Z,101513.84
2018-12-27T04:59:04.066Z,101518.36
2018-12-27T05:01:32.551Z,101520.17
2018-12-27T05:04:01.016Z,101515.64
2018-12-27T05:06:29.414Z,101518.67
2018-12-27T05:08:57.856Z,101518.17
2018-12-27T05:11:26.345Z,101511.13
2018-12-27T05:13:54.813Z,101513.12
2018-12-27T05:16:23.251Z,101510.59
2018-12-27T05:18:51.689Z,101513.47
2018-12-27T05:21:20.295Z,101515.08
2018-12-27T05:23:48.779Z,101520.45
2018-12-27T05:26:17.207Z,101525.56
2018-12-27T05:28:45.691Z,101532.91
2018-12-27T05:31:14.196Z,101540.86
2018-12-27T05:33:42.806Z,101541.63
2018-12-27T05:36:11.254Z,101540.67
2018-12-27T05:38:39.663Z,101543.34
2018-12-27T05:41:08.107Z,101539.16
2018-12-27T05:43:36.531Z,101539.16
2018-12-27T05:46:05.070Z,101538.69
2018-12-27T05:48:33.527Z,101544.30
2018-12-27T05:51:01.991Z,101540.06
2018-12-27T05:53:30.493Z,101543.22
2018-12-27T05:55:58.918Z,101539.48
2018-12-27T05:58:27.367Z,101537.74
2018-12-27T06:00:55.816Z,101539.50
2018-12-27T06:03:24.354Z,101531.06
2018-12-27T06:05:52.823Z,101529.38
2018-12-27T06:08:21.389Z,101534.06
2018-12-27T06:10:49.823Z,101530.70
2018-12-27T06:13:18.284Z,101533.59
2018-12-27T06:15:46.724Z,101526.96
2018-12-27T06:18:15.145Z,101523.58
2018-12-27T06:20:43.607Z,101529.48
2018-12-27T06:23:12.025Z,101525.28
2018-12-27T06:25:40.599Z,101520.69
2018-12-27T06:28:09.025Z,101518.54
2018-12-27T06:30:37.453Z,101516.06
2018-12-27T06:33:05.940Z,101518.17
2018-12-27T06:35:34.732Z,101516.47
2018-12-27T06:38:03.321Z,101517.87
2018-12-27T06:40:31.782Z,101517.92
2018-12-27T06:43:00.209Z,101526.44
2018-12-27T06:45:28.715Z,101532.00
2018-12-27T06:47:57.753Z,101537.16
2018-12-27T06:50:26.693Z,101530.42
2018-12-27T06:52:55.158Z,101530.00
2018-12-27T06:55:23.598Z,101524.94
2018-12-27T06:57:52.064Z,101533.55
2018-12-27T07:00:20.589Z,101533.13
2018-12-27T07:02:49.026Z,101535.25
2018-12-27T07:05:17.463Z,101531.45
2018-12-27T07:07:45.891Z,101529.39
2018-12-27T07:10:14.348Z,101526.56
2018-12-27T07:12:42.783Z,101531.87
2018-12-27T07:15:11.364Z,101535.79
2018-12-27T07:17:40.580Z,101535.35
2018-12-27T07:20:11.336Z,101531.14
2018-12-27T07:22:39.938Z,101538.32
2018-12-27T07:25:08.448Z,101539.22
2018-12-27T07:27:36.939Z,101531.19
2018-12-27T07:30:07.552Z,101539.34
2018-12-27T07:32:35.994Z,101538.08
2018-12-27T07:35:04.905Z,101536.45
2018-12-27T07:37:33.369Z,101540.30
2018-12-27T07:40:01.946Z,101540.73
2018-12-27T07:42:30.370Z,101539.11
2018-12-27T07:44:58.860Z,101542.19
2018-12-27T07:47:27.283Z,101540.61
2018-12-27T07:49:55.849Z,101540.02
2018-12-27T07:52:24.304Z,101534.52
2018-12-27T07:54:56.479Z,101535.78
2018-12-27T07:57:24.902Z,101540.02
2018-12-27T07:59:53.353Z,101542.70
2018-12-27T08:02:21.762Z,101545.62
2018-12-27T08:04:50.348Z,101546.09
2018-12-27T08:07:18.851Z,101543.55
2018-12-27T08:09:47.696Z,101549.05
2018-12-27T08:12:17.298Z,101549.11
2018-12-27T08:14:45.715Z,101550.06
2018-12-27T08:17:14.143Z,101544.45
2018-12-27T08:19:45.429Z,101543.67
2018-12-27T08:22:13.848Z,101534.13
2018-12-27T08:24:42.389Z,101541.63
2018-12-27T08:27:10.986Z,101550.50
2018-12-27T08:29:39.365Z,101548.50
2018-12-27T08:32:07.834Z,101538.84
2018-12-27T08:34:40.117Z,101535.47
2018-12-27T08:37:08.553Z,101533.00
2018-12-27T08:39:36.995Z,101525.33
2018-12-27T08:42:05.681Z,101528.77
2018-12-27T08:44:34.151Z,101528.30
2018-12-27T08:47:02.657Z,101523.59
2018-12-27T08:49:31.098Z,101520.33
2018-12-27T08:51:59.937Z,101512.78
2018-12-27T08:54:28.331Z,101518.31
2018-12-27T08:56:56.776Z,101513.20
2018-12-27T08:59:25.240Z,101517.17
2018-12-27T09:01:53.651Z,101521.08
2018-12-27T09:04:22.116Z,101513.12
2018-12-27T09:06:50.541Z,101513.70
2018-12-27T09:09:19.079Z,101513.28
2018-12-27T09:11:47.537Z,101511.16
2018-12-27T09:14:15.962Z,101508.69
2018-12-27T09:16:44.394Z,101512.92
2018-12-27T09:19:13.103Z,101518.52
2018-12-27T09:21:41.664Z,101517.63
2018-12-27T09:24:10.193Z,101514.70
2018-12-27T09:26:38.714Z,101526.23
2018-12-27T09:29:07.137Z,101522.84
2018-12-27T09:31:35.694Z,101525.86
2018-12-27T09:34:04.274Z,101527.97
2018-12-27T09:36:32.692Z,101529.66
2018-12-27T09:39:01.166Z,101528.76
2018-12-27T09:41:29.952Z,101530.09
2018-12-27T09:43:58.869Z,101516.04
2018-12-27T09:46:27.293Z,101527.02
2018-12-27T09:48:55.860Z,101518.14
2018-12-27T09:51:24.303Z,101516.98
2018-12-27T09:53:52.732Z,101514.56
2018-12-27T09:56:21.590Z,101514.56
2018-12-27T09:58:50.027Z,101514.34
2018-12-27T10:01:18.669Z,101508.07
2018-12-27T10:03:47.135Z,101505.27
2018-12-27T10:06:15.585Z,101509.08
2018-12-27T10:08:44.115Z,101507.43
2018-12-27T10:11:12.576Z,101505.00
2018-12-27T10:13:41.036Z,101503.94
2018-12-27T10:16:09.544Z,101502.62
2018-12-27T10:18:37.981Z,101501.02
2018-12-27T10:21:06.506Z,101498.14
2018-12-27T10:23:35.004Z,101489.52
2018-12-27T10:26:03.503Z,101490.98
2018-12-27T10:28:31.956Z,101491.31
2018-12-27T10:31:00.393Z,101482.72
2018-12-27T10:33:28.827Z,101483.19
2018-12-27T10:35:57.256Z,101479.39
2018-12-27T10:38:25.725Z,101477.73
2018-12-27T10:40:54.139Z,101472.38
2018-12-27T10:43:22.600Z,101469.23
2018-12-27T10:45:51.093Z,101462.56
2018-12-27T10:48:19.504Z,101456.31
2018-12-27T10:50:47.960Z,101456.03
2018-12-27T10:53:16.486Z,101454.86
2018-12-27T10:55:44.921Z,101449.12
2018-12-27T10:58:13.354Z,101447.98
2018-12-27T11:00:41.788Z,101448.87
2018-12-27T11:03:10.198Z,101440.11
2018-12-27T11:05:38.644Z,101443.12
2018-12-27T11:08:07.150Z,101453.56
2018-12-27T11:10:35.562Z,101441.33
2018-12-27T11:13:04.028Z,101443.03
2018-12-27T11:15:32.433Z,101439.64
2018-12-27T11:18:00.841Z,101432.95
2018-12-27T11:20:29.299Z,101435.50
2018-12-27T11:22:57.721Z,101437.61
2018-12-27T11:25:26.139Z,101440.63
2018-12-27T11:27:54.660Z,101434.73
2018-12-27T11:30:23.163Z,101435.88
2018-12-27T11:32:51.592Z,101433.85
2018-12-27T11:35:20.027Z,101436.47
2018-12-27T11:37:48.462Z,101427.55
2018-12-27T11:40:16.909Z,101414.89
2018-12-27T11:42:45.323Z,101412.69
2018-12-27T11:45:13.847Z,101415.30
2018-12-27T11:47:42.353Z,101409.93
2018-12-27T11:50:12.392Z,101410.78
2018-12-27T11:52:42.879Z,101410.78
2018-12-27T11:55:11.375Z,101406.08
2018-12-27T11:57:39.790Z,101401.81
2018-12-27T12:00:10.749Z,101396.69
2018-12-27T12:02:39.162Z,101389.63
2018-12-27T12:05:08.158Z,101403.08
2018-12-27T12:07:36.643Z,101399.73
2018-12-27T12:10:07.353Z,101395.09
2018-12-27T12:12:39.327Z,101401.94
2018-12-27T12:15:08.756Z,101404.52
2018-12-27T12:17:37.235Z,101399.44
2018-12-27T12:20:07.608Z,101398.20
2018-12-27T12:22:36.035Z,101399.47
2018-12-27T12:25:05.031Z,101400.36
2018-12-27T12:27:33.510Z,101399.97
2018-12-27T12:30:02.549Z,101406.44
2018-12-27T12:32:31.741Z,101397.05
2018-12-27T12:35:00.186Z,101396.67
2018-12-27T12:37:28.966Z,101395.32
2018-12-27T12:39:57.432Z,101401.70
2018-12-27T12:42:32.822Z,101401.70
2018-12-27T12:44:56.059Z,101400.48
2018-12-27T12:47:24.493Z,101410.29
2018-12-27T12:49:53.002Z,101411.09
2018-12-27T12:52:21.422Z,101413.72
2018-12-27T12:54:49.933Z,101422.15
2018-12-27T12:57:18.357Z,101427.34
2018-12-27T12:59:46.941Z,101425.66
2018-12-27T13:02:15.408Z,101422.83
2018-12-27T13:04:43.828Z,101428.77
2018-12-27T13:07:12.250Z,101425.91
2018-12-27T13:09:40.682Z,101431.77
2018-12-27T13:12:09.624Z,101428.03
2018-12-27T13:14:38.205Z,101421.22
2018-12-27T13:17:06.629Z,101428.06
2018-12-27T13:19:35.214Z,101436.46
2018-12-27T13:22:04.312Z,101433.92
2018-12-27T13:24:32.976Z,101430.49
2018-12-27T13:27:01.396Z,101438.42
2018-12-27T13:29:29.850Z,101443.97
2018-12-27T13:31:58.290Z,101443.97
2018-12-27T13:34:30.295Z,101440.97
2018-12-27T13:36:59.331Z,101441.70
2018-12-27T13:39:28.020Z,101444.31
2018-12-27T13:41:57.997Z,101441.28
2018-12-27T13:44:26.415Z,101437.89
2018-12-27T13:46:54.858Z,101428.11
2018-12-27T13:49:23.324Z,101423.87
2018-12-27T13:51:53.059Z,101423.03
2018-12-27T13:54:22.399Z,101416.64
2018-12-27T13:56:50.839Z,101423.03
2018-12-27T13:59:19.355Z,101425.15
2018-12-27T14:01:55.581Z,101417.91
2018-12-27T14:04:23.998Z,101417.91
2018-12-27T14:06:52.426Z,101419.98
2018-12-27T14:09:20.861Z,101421.69
2018-12-27T14:11:49.306Z,101421.68
2018-12-27T14:14:17.743Z,101421.68
2018-12-27T14:16:46.152Z,101421.19
2018-12-27T14:19:14.592Z,101419.52
2018-12-27T14:21:43.005Z,101422.45
2018-12-27T14:24:11.421Z,101423.33
2018-12-27T14:26:39.869Z,101414.18
2018-12-27T14:29:11.075Z,101416.18
2018-12-27T14:31:39.497Z,101419.99
2018-12-27T14:34:07.921Z,101409.67
2018-12-27T14:36:39.666Z,101408.91
2018-12-27T14:39:07.360Z,101411.41
2018-12-27T14:41:35.810Z,101410.02
2018-12-27T14:44:04.242Z,101407.09
2018-12-27T14:46:32.771Z,101398.42
2018-12-27T14:49:01.175Z,101397.54
2018-12-27T14:51:29.601Z,101401.42
2018-12-27T14:53:58.069Z,101403.08
2018-12-27T14:56:26.546Z,101404.19
2018-12-27T14:58:54.966Z,101399.58
2018-12-27T15:01:23.432Z,101401.98
2018-12-27T15:03:51.840Z,101400.77
2018-12-27T15:06:20.332Z,101402.75
2018-12-27T15:08:48.840Z,101401.14
2018-12-27T15:11:17.263Z,101408.42
2018-12-27T15:13:45.715Z,101401.14
2018-12-27T15:16:14.130Z,101400.33
2018-12-27T15:18:42.601Z,101403.22
2018-12-27T15:21:11.070Z,101399.32
2018-12-27T15:23:39.485Z,101405.24
2018-12-27T15:26:07.911Z,101406.47
2018-12-27T15:28:36.404Z,101409.02
2018-12-27T15:31:04.816Z,101402.63
2018-12-27T15:33:33.591Z,101406.37
2018-12-27T15:36:02.051Z,101401.73
2018-12-27T15:38:30.474Z,101407.31
2018-12-27T15:40:58.903Z,101403.77
2018-12-27T15:43:27.358Z,101409.31
2018-12-27T15:45:55.782Z,101402.50
2018-12-27T15:48:24.221Z,101402.96
2018-12-27T15:50:52.647Z,101403.33
2018-12-27T15:53:21.086Z,101402.50
2018-12-27T15:55:49.499Z,101402.50
2018-12-27T15:58:17.945Z,101399.16
2018-12-27T16:00:46.380Z,101399.63
2018-12-27T16:03:14.812Z,101396.19
2018-12-27T16:05:43.250Z,101397.38
2018-12-27T16:08:11.660Z,101402.53
2018-12-27T16:10:40.144Z,101402.53
2018-12-27T16:13:08.555Z,101400.30
2018-12-27T16:15:36.978Z,101401.60
2018-12-27T16:18:05.448Z,101396.87
2018-12-27T16:20:33.894Z,101399.87
2018-12-27T16:23:02.299Z,101400.76
2018-12-27T16:25:31.113Z,101393.05
2018-12-27T16:27:59.528Z,101401.85
2018-12-27T16:30:28.343Z,101400.12
2018-12-27T16:32:56.769Z,101401.39
2018-12-27T16:35:25.200Z,101403.78
2018-12-27T16:37:54.029Z,101400.02
2018-12-27T16:40:22.539Z,101394.06
2018-12-27T16:42:51.114Z,101395.76
2018-12-27T16:45:19.540Z,101391.58
2018-12-27T16:47:47.987Z,101393.17
2018-12-27T16:50:16.416Z,101388.61
2018-12-27T16:52:44.848Z,101390.77
2018-12-27T16:55:13.340Z,101390.25
2018-12-27T16:57:41.763Z,101389.84
2018-12-27T17:00:10.251Z,101382.52
2018-12-27T17:02:38.678Z,101385.73
2018-12-27T17:05:07.209Z,101395.04
2018-12-27T17:07:35.592Z,101393.77
2018-12-27T17:10:04.893Z,101396.05
2018-12-27T17:12:33.365Z,101384.16
2018-12-27T17:15:01.784Z,101393.11
2018-12-27T17:17:30.262Z,101392.80
2018-12-27T17:19:58.707Z,101389.25
2018-12-27T17:22:27.218Z,101386.63
2018-12-27T17:24:55.664Z,101383.58
2018-12-27T17:27:25.750Z,101381.03
2018-12-27T17:29:54.229Z,101381.33
2018-12-27T17:32:22.677Z,101384.80
2018-12-27T17:34:51.106Z,101386.83
2018-12-27T17:37:23.319Z,101378.84
2018-12-27T17:39:49.682Z,101384.75
2018-12-27T17:42:18.088Z,101382.13
2018-12-27T17:44:46.625Z,101372.87
2018-12-27T17:47:15.021Z,101374.14
2018-12-27T17:49:43.434Z,101380.06
2018-12-27T17:52:11.983Z,101366.58
2018-12-27T17:54:40.403Z,101365.27
2018-12-27T17:57:08.847Z,101364.45
2018-12-27T17:59:37.416Z,101367.42
2018-12-27T18:02:05.834Z,101364.00
2018-12-27T18:04:34.255Z,101358.36
2018-12-27T18:07:02.706Z,101364.80
2018-12-27T18:09:31.118Z,101357.22
2018-12-27T18:11:59.638Z,101364.00
2018-12-27T18:14:28.103Z,101359.25
2018-12-27T18:16:56.577Z,101365.13
2018-12-27T18:19:26.313Z,101374.02
2018-12-27T18:21:56.827Z,101362.64
2018-12-27T18:24:25.475Z,101366.82
2018-12-27T18:26:53.912Z,101360.90
2018-12-27T18:29:22.352Z,101366.86
2018-12-27T18:31:50.773Z,101357.22
2018-12-27T18:34:19.301Z,101357.61
2018-12-27T18:36:47.910Z,101351.65
2018-12-27T18:39:16.914Z,101359.34
2018-12-27T18:41:45.824Z,101361.45
2018-12-27T18:44:14.332Z,101358.49
2018-12-27T18:46:43.041Z,101360.19
2018-12-27T18:49:13.006Z,101358.13
2018-12-27T18:51:41.435Z,101351.36
2018-12-27T18:54:09.832Z,101350.08
2018-12-27T18:56:39.957Z,101350.09
2018-12-27T18:59:08.406Z,101350.50
2018-12-27T19:01:36.896Z,101348.81
2018-12-27T19:04:07.200Z,101346.70
2018-12-27T19:06:35.622Z,101350.55
2018-12-27T19:09:09.547Z,101349.28
2018-12-27T19:12:14.349Z,101351.34
2018-12-27T19:14:43.142Z,101347.17
2018-12-27T19:17:17.601Z,101350.59
2018-12-27T19:19:46.089Z,101350.55
2018-12-27T19:22:15.723Z,101347.97
2018-12-27T19:24:44.153Z,101342.90
2018-12-27T19:27:12.574Z,101348.02
2018-12-27T19:29:41.007Z,101348.91
2018-12-27T19:32:09.487Z,101349.33
2018-12-27T19:34:37.897Z,101345.98
2018-12-27T19:37:06.325Z,101345.98
2018-12-27T19:39:35.476Z,101348.52
2018-12-27T19:42:03.896Z,101346.02
2018-12-27T19:44:32.338Z,101350.22
2018-12-27T19:47:00.750Z,101352.80
2018-12-27T19:49:29.178Z,101347.25
2018-12-27T19:51:57.602Z,101348.09
2018-12-27T19:54:31.940Z,101349.41
2018-12-27T19:56:56.233Z,101340.91
2018-12-27T19:59:24.685Z,101345.52
2018-12-27T20:01:53.133Z,101347.63
2018-12-27T20:04:21.581Z,101347.25
2018-12-27T20:06:50.104Z,101343.88
2018-12-27T20:09:18.530Z,101341.80
2018-12-27T20:11:46.956Z,101338.03
2018-12-27T20:14:15.461Z,101337.14
2018-12-27T20:16:43.963Z,101337.15
2018-12-27T20:19:12.394Z,101340.95
2018-12-27T20:21:40.855Z,101347.30
2018-12-27T20:24:09.333Z,101344.33
2018-12-27T20:26:37.761Z,101344.38
2018-12-27T20:29:06.168Z,101349.45
2018-12-27T20:31:34.608Z,101352.83
2018-12-27T20:34:03.122Z,101358.38
2018-12-27T20:36:33.044Z,101358.80
2018-12-27T20:39:01.528Z,101363.49
2018-12-27T20:41:29.966Z,101362.60
2018-12-27T20:43:58.387Z,101369.37
2018-12-27T20:46:26.812Z,101365.19
2018-12-27T20:48:55.293Z,101365.15
2018-12-27T20:51:23.945Z,101361.71
2018-12-27T20:53:52.381Z,101369.75
2018-12-27T20:56:20.888Z,101368.91
2018-12-27T20:58:49.601Z,101365.06
2018-12-27T21:01:18.020Z,101367.64
2018-12-27T21:03:46.558Z,101366.41
2018-12-27T21:06:15.394Z,101364.30
2018-12-27T21:08:43.814Z,101367.25
2018-12-27T21:11:12.238Z,101373.22
2018-12-27T21:13:40.651Z,101371.49
2018-12-27T21:16:09.190Z,101369.75
2018-12-27T21:18:37.629Z,101372.72
2018-12-27T21:21:06.054Z,101367.25
2018-12-27T21:23:34.301Z,101363.80
2018-12-27T21:26:02.712Z,101363.03
2018-12-27T21:28:31.182Z,101363.03
2018-12-27T21:30:59.604Z,101369.08
2018-12-27T21:33:28.040Z,101365.65
2018-12-27T21:35:56.467Z,101372.89
2018-12-27T21:38:24.906Z,101371.99
2018-12-27T21:40:59.633Z,101368.19
2018-12-27T21:43:28.129Z,101372.37
2018-12-27T21:45:56.676Z,101369.96
2018-12-27T21:48:25.119Z,101370.00
2018-12-27T21:50:53.641Z,101368.78
2018-12-27T21:53:22.062Z,101370.05
2018-12-27T21:55:50.563Z,101373.86
2018-12-27T21:58:18.992Z,101364.55
2018-12-27T22:00:47.414Z,101359.42
2018-12-27T22:03:15.952Z,101362.81
2018-12-27T22:05:44.401Z,101362.34
2018-12-27T22:08:12.824Z,101358.12
2018-12-27T22:10:41.265Z,101357.27
2018-12-27T22:13:09.864Z,101347.88
2018-12-27T22:15:38.549Z,101345.39
2018-12-27T22:18:06.981Z,101344.08
2018-12-27T22:20:35.535Z,101334.73
2018-12-27T22:23:04.473Z,101326.27
2018-12-27T22:25:32.990Z,101329.62
2018-12-27T22:28:01.502Z,101323.70
2018-12-27T22:30:29.946Z,101321.16
2018-12-27T22:32:58.386Z,101323.23
2018-12-27T22:35:26.800Z,101325.34
2018-12-27T22:37:55.225Z,101317.31
2018-12-27T22:40:23.651Z,101313.05
2018-12-27T22:42:52.159Z,101318.88
2018-12-27T22:45:20.598Z,101319.72
2018-12-27T22:47:49.045Z,101317.56
2018-12-27T22:50:17.454Z,101321.03
2018-12-27T22:52:46.015Z,101315.58
2018-12-27T22:55:14.440Z,101305.42
2018-12-27T22:57:42.889Z,101300.36
2018-12-27T23:00:22.002Z,101308.42
2018-12-27T23:02:50.409Z,101305.84
2018-12-27T23:05:18.837Z,101311.81
2018-12-27T23:07:47.296Z,101311.38
2018-12-27T23:10:15.690Z,101317.73
2018-12-27T23:12:44.151Z,101312.70
2018-12-27T23:15:12.574Z,101315.66
2018-12-27T23:17:40.989Z,101324.20
2018-12-27T23:20:09.467Z,101325.09
2018-12-27T23:22:37.879Z,101325.89
2018-12-27T23:25:06.314Z,101328.84
2018-12-27T23:27:34.899Z,101330.12
2018-12-27T23:30:04.005Z,101328.89
2018-12-27T23:32:32.493Z,101331.89
2018-12-27T23:35:00.958Z,101330.23
2018-12-27T23:37:29.371Z,101321.75
2018-12-27T23:39:57.820Z,101319.62
2018-12-27T23:42:26.383Z,101320.94
2018-12-27T23:44:54.888Z,101316.70
2018-12-27T23:47:23.324Z,101317.98
2018-12-27T23:49:51.756Z,101330.16
2018-12-27T23:52:20.181Z,101331.52
2018-12-27T23:54:48.627Z,101331.39
2018-12-27T23:57:17.042Z,101334.82
2018-12-27T23:59:45.549Z,101337.39
